sensor_id;sensor_type;location;lat;lon;timestamp;pressure;altitude;pressure_sealevel;temperature;humidity
49999;BME280;68071;45.062;7.356;2023-07-22T00:02:02;94803.75;;;18.41;100.00
49999;BME280;68071;45.062;7.356;2023-07-22T00:05:07;94802.00;;;18.53;100.00
49999;BME280;68071;45.062;7.356;2023-07-22T00:08:11;94797.19;;;18.54;100.00
49999;BME280;68071;45.062;7.356;2023-07-22T00:11:15;94804.19;;;18.40;100.00
49999;BME280;68071;45.062;7.356;2023-07-22T00:14:19;94803.09;;;18.56;100.00
49999;BME280;68071;45.062;7.356;2023-07-22T00:17:23;94802.56;;;18.76;100.00
49999;BME280;68071;45.062;7.356;2023-07-22T00:20:28;94803.97;;;18.71;100.00
49999;BME280;68071;45.062;7.356;2023-07-22T00:23:33;94797.13;;;18.72;100.00
49999;BME280;68071;45.062;7.356;2023-07-22T00:26:37;94783.31;;;18.59;100.00
49999;BME280;68071;45.062;7.356;2023-07-22T00:29:41;94789.25;;;19.04;100.00
49999;BME280;68071;45.062;7.356;2023-07-22T00:32:45;94798.56;;;18.58;100.00
49999;BME280;68071;45.062;7.356;2023-07-22T00:35:49;94809.31;;;18.51;100.00
49999;BME280;68071;45.062;7.356;2023-07-22T00:38:56;94801.84;;;18.48;100.00
49999;BME280;68071;45.062;7.356;2023-07-22T00:42:00;94804.66;;;18.29;100.00
49999;BME280;68071;45.062;7.356;2023-07-22T00:45:05;94807.03;;;18.12;100.00
49999;BME280;68071;45.062;7.356;2023-07-22T00:48:09;94799.69;;;17.96;100.00
49999;BME280;68071;45.062;7.356;2023-07-22T00:51:14;94798.47;;;18.25;100.00
49999;BME280;68071;45.062;7.356;2023-07-22T00:54:18;94793.78;;;17.94;100.00
49999;BME280;68071;45.062;7.356;2023-07-22T00:57:23;94804.53;;;18.33;100.00
49999;BME280;68071;45.062;7.356;2023-07-22T01:00:26;94799.41;;;18.03;100.00
49999;BME280;68071;45.062;7.356;2023-07-22T01:03:30;94803.16;;;18.80;100.00
49999;BME280;68071;45.062;7.356;2023-07-22T01:06:35;94809.63;;;17.97;100.00
49999;BME280;68071;45.062;7.356;2023-07-22T01:09:42;94813.03;;;17.82;100.00
49999;BME280;68071;45.062;7.356;2023-07-22T01:12:46;94817.22;;;17.78;100.00
49999;BME280;68071;45.062;7.356;2023-07-22T01:15:50;94811.09;;;17.51;100.00
49999;BME280;68071;45.062;7.356;2023-07-22T01:18:54;94811.81;;;18.39;100.00
49999;BME280;68071;45.062;7.356;2023-07-22T01:22:05;94817.41;;;18.39;100.00
49999;BME280;68071;45.062;7.356;2023-07-22T01:25:11;94814.31;;;18.37;100.00
49999;BME280;68071;45.062;7.356;2023-07-22T01:28:16;94817.06;;;17.91;100.00
49999;BME280;68071;45.062;7.356;2023-07-22T01:31:20;94814.56;;;17.74;100.00
49999;BME280;68071;45.062;7.356;2023-07-22T01:34:24;94815.19;;;17.78;100.00
49999;BME280;68071;45.062;7.356;2023-07-22T01:37:28;94815.94;;;17.51;100.00
49999;BME280;68071;45.062;7.356;2023-07-22T01:40:32;94812.78;;;17.30;100.00
49999;BME280;68071;45.062;7.356;2023-07-22T01:43:36;94820.38;;;17.98;100.00
49999;BME280;68071;45.062;7.356;2023-07-22T01:46:40;94820.78;;;17.78;100.00
49999;BME280;68071;45.062;7.356;2023-07-22T01:49:44;94808.50;;;17.57;100.00
49999;BME280;68071;45.062;7.356;2023-07-22T01:52:49;94812.50;;;17.47;100.00
49999;BME280;68071;45.062;7.356;2023-07-22T01:55:52;94805.63;;;17.29;100.00
49999;BME280;68071;45.062;7.356;2023-07-22T01:58:58;94802.91;;;17.57;100.00
49999;BME280;68071;45.062;7.356;2023-07-22T02:02:02;94809.94;;;17.80;100.00
49999;BME280;68071;45.062;7.356;2023-07-22T02:05:06;94817.69;;;17.67;100.00
49999;BME280;68071;45.062;7.356;2023-07-22T02:08:10;94828.31;;;18.19;100.00
49999;BME280;68071;45.062;7.356;2023-07-22T02:11:14;94818.34;;;18.27;100.00
49999;BME280;68071;45.062;7.356;2023-07-22T02:14:18;94823.03;;;18.21;100.00
49999;BME280;68071;45.062;7.356;2023-07-22T02:17:22;94824.66;;;17.81;100.00
49999;BME280;68071;45.062;7.356;2023-07-22T02:20:27;94825.22;;;17.38;100.00
49999;BME280;68071;45.062;7.356;2023-07-22T02:23:32;94826.78;;;17.49;100.00
49999;BME280;68071;45.062;7.356;2023-07-22T02:26:36;94832.44;;;17.17;100.00
49999;BME280;68071;45.062;7.356;2023-07-22T02:29:40;94835.53;;;17.19;100.00
49999;BME280;68071;45.062;7.356;2023-07-22T02:32:44;94828.03;;;17.38;100.00
49999;BME280;68071;45.062;7.356;2023-07-22T02:35:48;94829.75;;;17.45;100.00
49999;BME280;68071;45.062;7.356;2023-07-22T02:38:52;94832.06;;;17.47;100.00
49999;BME280;68071;45.062;7.356;2023-07-22T02:41:56;94828.13;;;17.26;100.00
49999;BME280;68071;45.062;7.356;2023-07-22T02:45:01;94830.22;;;17.12;100.00
49999;BME280;68071;45.062;7.356;2023-07-22T02:48:05;94830.44;;;17.18;100.00
49999;BME280;68071;45.062;7.356;2023-07-22T02:51:10;94829.31;;;17.65;100.00
49999;BME280;68071;45.062;7.356;2023-07-22T02:54:14;94825.75;;;17.74;100.00
49999;BME280;68071;45.062;7.356;2023-07-22T02:57:18;94825.03;;;17.33;100.00
49999;BME280;68071;45.062;7.356;2023-07-22T03:00:22;94827.28;;;17.57;100.00
49999;BME280;68071;45.062;7.356;2023-07-22T03:03:30;94833.50;;;17.70;100.00
49999;BME280;68071;45.062;7.356;2023-07-22T03:06:37;94837.19;;;17.07;100.00
49999;BME280;68071;45.062;7.356;2023-07-22T03:09:41;94835.69;;;16.84;100.00
49999;BME280;68071;45.062;7.356;2023-07-22T03:12:45;94834.47;;;16.41;100.00
49999;BME280;68071;45.062;7.356;2023-07-22T03:15:49;94828.50;;;16.52;100.00
49999;BME280;68071;45.062;7.356;2023-07-22T03:18:53;94837.50;;;16.78;100.00
49999;BME280;68071;45.062;7.356;2023-07-22T03:21:57;94831.75;;;17.04;100.00
49999;BME280;68071;45.062;7.356;2023-07-22T03:25:01;94843.56;;;17.08;100.00
49999;BME280;68071;45.062;7.356;2023-07-22T03:28:07;94851.16;;;16.54;100.00
49999;BME280;68071;45.062;7.356;2023-07-22T03:31:11;94853.00;;;16.12;100.00
49999;BME280;68071;45.062;7.356;2023-07-22T03:34:15;94844.91;;;16.05;100.00
49999;BME280;68071;45.062;7.356;2023-07-22T03:37:19;94854.84;;;16.51;100.00
49999;BME280;68071;45.062;7.356;2023-07-22T03:40:24;94850.69;;;16.55;100.00
49999;BME280;68071;45.062;7.356;2023-07-22T03:43:33;94864.72;;;16.42;100.00
49999;BME280;68071;45.062;7.356;2023-07-22T03:46:37;94867.94;;;16.85;100.00
49999;BME280;68071;45.062;7.356;2023-07-22T03:49:40;94868.91;;;16.91;100.00
49999;BME280;68071;45.062;7.356;2023-07-22T03:52:44;94866.31;;;16.75;100.00
49999;BME280;68071;45.062;7.356;2023-07-22T03:55:48;94862.63;;;16.78;100.00
49999;BME280;68071;45.062;7.356;2023-07-22T03:58:53;94878.66;;;17.18;100.00
49999;BME280;68071;45.062;7.356;2023-07-22T04:01:56;94880.59;;;16.77;100.00
49999;BME280;68071;45.062;7.356;2023-07-22T04:05:00;94875.94;;;16.52;100.00
49999;BME280;68071;45.062;7.356;2023-07-22T04:08:05;94872.63;;;16.44;100.00
49999;BME280;68071;45.062;7.356;2023-07-22T04:11:08;94880.69;;;16.07;100.00
49999;BME280;68071;45.062;7.356;2023-07-22T04:14:12;94882.22;;;16.21;100.00
49999;BME280;68071;45.062;7.356;2023-07-22T04:17:16;94877.06;;;16.19;100.00
49999;BME280;68071;45.062;7.356;2023-07-22T04:20:20;94885.81;;;16.66;100.00
49999;BME280;68071;45.062;7.356;2023-07-22T04:23:28;94889.59;;;17.03;100.00
49999;BME280;68071;45.062;7.356;2023-07-22T04:26:32;94883.25;;;17.34;100.00
49999;BME280;68071;45.062;7.356;2023-07-22T04:29:36;94885.81;;;17.19;100.00
49999;BME280;68071;45.062;7.356;2023-07-22T04:32:44;94895.44;;;17.18;100.00
49999;BME280;68071;45.062;7.356;2023-07-22T04:35:47;94897.16;;;16.71;100.00
49999;BME280;68071;45.062;7.356;2023-07-22T04:38:51;94890.03;;;16.48;100.00
49999;BME280;68071;45.062;7.356;2023-07-22T04:41:56;94884.97;;;16.56;100.00
49999;BME280;68071;45.062;7.356;2023-07-22T04:45:00;94887.81;;;16.87;100.00
49999;BME280;68071;45.062;7.356;2023-07-22T04:48:04;94888.88;;;16.90;100.00
49999;BME280;68071;45.062;7.356;2023-07-22T04:51:08;94897.91;;;16.94;100.00
49999;BME280;68071;45.062;7.356;2023-07-22T04:54:12;94895.88;;;16.94;100.00
49999;BME280;68071;45.062;7.356;2023-07-22T04:57:16;94896.56;;;16.99;100.00
49999;BME280;68071;45.062;7.356;2023-07-22T05:00:22;94902.59;;;16.75;100.00
49999;BME280;68071;45.062;7.356;2023-07-22T05:03:26;94909.16;;;16.81;100.00
49999;BME280;68071;45.062;7.356;2023-07-22T05:06:30;94908.97;;;16.75;100.00
49999;BME280;68071;45.062;7.356;2023-07-22T05:09:34;94914.28;;;16.83;100.00
49999;BME280;68071;45.062;7.356;2023-07-22T05:12:38;94908.44;;;16.90;100.00
49999;BME280;68071;45.062;7.356;2023-07-22T05:15:42;94916.94;;;16.86;100.00
49999;BME280;68071;45.062;7.356;2023-07-22T05:18:46;94919.75;;;16.86;100.00
49999;BME280;68071;45.062;7.356;2023-07-22T05:21:50;94907.91;;;17.04;100.00
49999;BME280;68071;45.062;7.356;2023-07-22T05:24:54;94912.19;;;17.59;100.00
49999;BME280;68071;45.062;7.356;2023-07-22T05:27:58;94913.00;;;17.28;100.00
49999;BME280;68071;45.062;7.356;2023-07-22T05:31:02;94922.63;;;17.27;100.00
49999;BME280;68071;45.062;7.356;2023-07-22T05:34:06;94917.91;;;17.46;100.00
49999;BME280;68071;45.062;7.356;2023-07-22T05:37:10;94927.34;;;17.39;100.00
49999;BME280;68071;45.062;7.356;2023-07-22T05:40:14;94928.06;;;17.31;100.00
49999;BME280;68071;45.062;7.356;2023-07-22T05:43:18;94916.25;;;17.58;100.00
49999;BME280;68071;45.062;7.356;2023-07-22T05:46:22;94926.19;;;18.00;100.00
49999;BME280;68071;45.062;7.356;2023-07-22T05:49:26;94920.59;;;18.28;100.00
49999;BME280;68071;45.062;7.356;2023-07-22T05:52:30;94915.19;;;18.52;100.00
49999;BME280;68071;45.062;7.356;2023-07-22T05:55:34;94917.47;;;18.82;100.00
49999;BME280;68071;45.062;7.356;2023-07-22T05:58:37;94920.44;;;18.87;100.00
49999;BME280;68071;45.062;7.356;2023-07-22T06:01:41;94925.13;;;19.00;100.00
49999;BME280;68071;45.062;7.356;2023-07-22T06:04:45;94928.53;;;19.04;100.00
49999;BME280;68071;45.062;7.356;2023-07-22T06:07:49;94931.78;;;19.12;100.00
49999;BME280;68071;45.062;7.356;2023-07-22T06:10:53;94939.88;;;19.19;100.00
49999;BME280;68071;45.062;7.356;2023-07-22T06:13:57;94953.81;;;19.47;100.00
49999;BME280;68071;45.062;7.356;2023-07-22T06:17:01;94951.41;;;19.64;100.00
49999;BME280;68071;45.062;7.356;2023-07-22T06:20:06;94954.91;;;19.92;100.00
49999;BME280;68071;45.062;7.356;2023-07-22T06:23:10;94958.13;;;20.00;100.00
49999;BME280;68071;45.062;7.356;2023-07-22T06:26:14;94962.09;;;20.42;100.00
49999;BME280;68071;45.062;7.356;2023-07-22T06:29:18;94960.50;;;20.65;100.00
49999;BME280;68071;45.062;7.356;2023-07-22T06:32:22;94965.56;;;20.61;100.00
49999;BME280;68071;45.062;7.356;2023-07-22T06:35:26;94965.53;;;20.85;100.00
49999;BME280;68071;45.062;7.356;2023-07-22T06:38:30;94973.88;;;20.95;100.00
49999;BME280;68071;45.062;7.356;2023-07-22T06:41:34;94974.22;;;21.12;100.00
49999;BME280;68071;45.062;7.356;2023-07-22T06:44:39;94973.16;;;21.54;100.00
49999;BME280;68071;45.062;7.356;2023-07-22T06:47:43;94971.09;;;21.40;100.00
49999;BME280;68071;45.062;7.356;2023-07-22T06:50:48;94975.59;;;21.31;100.00
49999;BME280;68071;45.062;7.356;2023-07-22T06:53:52;94976.75;;;21.25;100.00
49999;BME280;68071;45.062;7.356;2023-07-22T06:56:56;94967.75;;;21.36;100.00
49999;BME280;68071;45.062;7.356;2023-07-22T07:00:00;94977.91;;;21.33;100.00
49999;BME280;68071;45.062;7.356;2023-07-22T07:03:04;94986.13;;;21.97;100.00
49999;BME280;68071;45.062;7.356;2023-07-22T07:06:08;94981.91;;;21.71;100.00
49999;BME280;68071;45.062;7.356;2023-07-22T07:09:12;94979.66;;;21.45;100.00
49999;BME280;68071;45.062;7.356;2023-07-22T07:12:16;94982.78;;;21.63;100.00
49999;BME280;68071;45.062;7.356;2023-07-22T07:15:20;94981.88;;;21.41;100.00
49999;BME280;68071;45.062;7.356;2023-07-22T07:18:24;94979.34;;;21.58;100.00
49999;BME280;68071;45.062;7.356;2023-07-22T07:21:29;94984.41;;;21.84;100.00
49999;BME280;68071;45.062;7.356;2023-07-22T07:24:33;94981.50;;;21.94;96.28
49999;BME280;68071;45.062;7.356;2023-07-22T07:27:37;94993.53;;;21.79;94.85
49999;BME280;68071;45.062;7.356;2023-07-22T07:30:41;94985.47;;;21.87;94.49
49999;BME280;68071;45.062;7.356;2023-07-22T07:33:45;94989.03;;;22.02;94.15
49999;BME280;68071;45.062;7.356;2023-07-22T07:36:49;94999.78;;;22.19;99.12
49999;BME280;68071;45.062;7.356;2023-07-22T07:39:53;94993.44;;;22.24;99.35
49999;BME280;68071;45.062;7.356;2023-07-22T07:42:57;95008.84;;;22.44;100.00
49999;BME280;68071;45.062;7.356;2023-07-22T07:46:17;95005.84;;;22.47;100.00
49999;BME280;68071;45.062;7.356;2023-07-22T07:49:22;95000.69;;;22.66;100.00
49999;BME280;68071;45.062;7.356;2023-07-22T07:52:26;94997.25;;;22.42;100.00
49999;BME280;68071;45.062;7.356;2023-07-22T07:55:30;94997.19;;;22.72;100.00
49999;BME280;68071;45.062;7.356;2023-07-22T07:58:34;95008.38;;;22.66;100.00
49999;BME280;68071;45.062;7.356;2023-07-22T08:01:38;95001.69;;;22.84;100.00
49999;BME280;68071;45.062;7.356;2023-07-22T08:04:45;94986.88;;;22.69;100.00
49999;BME280;68071;45.062;7.356;2023-07-22T08:07:50;94993.88;;;23.20;99.34
49999;BME280;68071;45.062;7.356;2023-07-22T08:11:02;94981.94;;;23.05;100.00
49999;BME280;68071;45.062;7.356;2023-07-22T08:14:07;94982.75;;;23.32;98.55
49999;BME280;68071;45.062;7.356;2023-07-22T08:17:11;94977.56;;;23.24;99.23
49999;BME280;68071;45.062;7.356;2023-07-22T08:20:16;94986.94;;;23.42;99.04
49999;BME280;68071;45.062;7.356;2023-07-22T08:23:20;94977.00;;;23.73;100.00
49999;BME280;68071;45.062;7.356;2023-07-22T08:26:24;94984.13;;;23.42;97.38
49999;BME280;68071;45.062;7.356;2023-07-22T08:29:28;94994.06;;;23.64;93.50
49999;BME280;68071;45.062;7.356;2023-07-22T08:32:32;94992.59;;;22.74;96.79
49999;BME280;68071;45.062;7.356;2023-07-22T08:35:36;94984.44;;;23.76;97.86
49999;BME280;68071;45.062;7.356;2023-07-22T08:38:40;94996.69;;;24.37;92.26
49999;BME280;68071;45.062;7.356;2023-07-22T08:41:48;94994.69;;;24.43;90.82
49999;BME280;68071;45.062;7.356;2023-07-22T08:44:56;94995.31;;;24.65;90.84
49999;BME280;68071;45.062;7.356;2023-07-22T08:48:03;94997.72;;;24.77;89.77
49999;BME280;68071;45.062;7.356;2023-07-22T08:51:18;95002.44;;;24.49;90.19
49999;BME280;68071;45.062;7.356;2023-07-22T08:54:23;95005.53;;;23.81;91.68
49999;BME280;68071;45.062;7.356;2023-07-22T08:57:29;95012.66;;;23.76;90.95
49999;BME280;68071;45.062;7.356;2023-07-22T09:00:33;95008.63;;;24.15;90.59
49999;BME280;68071;45.062;7.356;2023-07-22T09:03:38;95003.41;;;24.02;92.24
49999;BME280;68071;45.062;7.356;2023-07-22T09:06:43;95005.66;;;23.66;94.28
49999;BME280;68071;45.062;7.356;2023-07-22T09:09:47;95012.41;;;24.06;90.11
49999;BME280;68071;45.062;7.356;2023-07-22T09:12:51;95013.63;;;23.20;98.94
49999;BME280;68071;45.062;7.356;2023-07-22T09:15:59;95011.53;;;22.53;100.00
49999;BME280;68071;45.062;7.356;2023-07-22T09:19:03;95011.78;;;23.17;98.23
49999;BME280;68071;45.062;7.356;2023-07-22T09:22:09;95012.91;;;24.05;93.19
49999;BME280;68071;45.062;7.356;2023-07-22T09:28:20;95013.44;;;24.90;92.33
49999;BME280;68071;45.062;7.356;2023-07-22T09:31:25;95021.63;;;24.82;86.52
49999;BME280;68071;45.062;7.356;2023-07-22T09:34:30;95017.53;;;24.89;91.83
49999;BME280;68071;45.062;7.356;2023-07-22T09:37:38;95020.91;;;24.50;89.67
49999;BME280;68071;45.062;7.356;2023-07-22T09:40:42;95014.69;;;24.77;91.08
49999;BME280;68071;45.062;7.356;2023-07-22T09:43:47;95014.94;;;24.42;94.04
49999;BME280;68071;45.062;7.356;2023-07-22T09:46:52;95016.91;;;24.24;91.79
49999;BME280;68071;45.062;7.356;2023-07-22T09:49:56;95014.06;;;24.62;91.96
49999;BME280;68071;45.062;7.356;2023-07-22T09:53:00;95012.88;;;25.52;84.96
49999;BME280;68071;45.062;7.356;2023-07-22T09:56:07;95011.75;;;25.15;88.01
49999;BME280;68071;45.062;7.356;2023-07-22T09:59:11;95019.69;;;25.05;86.93
49999;BME280;68071;45.062;7.356;2023-07-22T10:02:15;95024.03;;;25.06;86.69
49999;BME280;68071;45.062;7.356;2023-07-22T10:05:22;95023.34;;;25.23;90.10
49999;BME280;68071;45.062;7.356;2023-07-22T10:08:29;95026.47;;;25.36;83.82
49999;BME280;68071;45.062;7.356;2023-07-22T10:11:35;95019.59;;;25.72;83.25
49999;BME280;68071;45.062;7.356;2023-07-22T10:14:39;95014.63;;;25.38;90.96
49999;BME280;68071;45.062;7.356;2023-07-22T10:17:44;95018.59;;;26.20;81.95
49999;BME280;68071;45.062;7.356;2023-07-22T10:20:48;95029.19;;;26.20;84.38
49999;BME280;68071;45.062;7.356;2023-07-22T10:23:53;95021.97;;;26.19;81.43
49999;BME280;68071;45.062;7.356;2023-07-22T10:26:58;95017.31;;;26.10;80.55
49999;BME280;68071;45.062;7.356;2023-07-22T10:30:03;95015.50;;;25.61;84.28
49999;BME280;68071;45.062;7.356;2023-07-22T10:33:07;95018.03;;;25.48;85.16
49999;BME280;68071;45.062;7.356;2023-07-22T10:36:14;95009.59;;;26.22;87.89
49999;BME280;68071;45.062;7.356;2023-07-22T10:39:26;95009.06;;;26.23;86.53
49999;BME280;68071;45.062;7.356;2023-07-22T10:42:31;95010.16;;;27.08;73.43
49999;BME280;68071;45.062;7.356;2023-07-22T10:45:39;95013.38;;;26.58;81.94
49999;BME280;68071;45.062;7.356;2023-07-22T10:48:44;95010.88;;;26.21;85.29
49999;BME280;68071;45.062;7.356;2023-07-22T10:51:49;95000.81;;;25.68;82.85
49999;BME280;68071;45.062;7.356;2023-07-22T10:54:55;94993.59;;;25.50;84.30
49999;BME280;68071;45.062;7.356;2023-07-22T10:58:04;94998.22;;;26.39;77.94
49999;BME280;68071;45.062;7.356;2023-07-22T11:04:31;94998.78;;;26.20;83.77
49999;BME280;68071;45.062;7.356;2023-07-22T11:07:43;95003.66;;;26.42;77.58
49999;BME280;68071;45.062;7.356;2023-07-22T11:10:54;95001.34;;;26.07;79.05
49999;BME280;68071;45.062;7.356;2023-07-22T11:14:15;94998.66;;;26.71;76.30
49999;BME280;68071;45.062;7.356;2023-07-22T11:17:30;94997.56;;;27.03;75.53
49999;BME280;68071;45.062;7.356;2023-07-22T11:20:35;94992.97;;;26.77;76.85
49999;BME280;68071;45.062;7.356;2023-07-22T11:23:39;94998.59;;;27.00;72.29
49999;BME280;68071;45.062;7.356;2023-07-22T11:26:44;94988.94;;;27.26;75.00
49999;BME280;68071;45.062;7.356;2023-07-22T11:29:49;94992.34;;;27.66;77.63
49999;BME280;68071;45.062;7.356;2023-07-22T11:32:57;94989.25;;;27.64;70.57
49999;BME280;68071;45.062;7.356;2023-07-22T11:36:02;94984.50;;;28.14;65.21
49999;BME280;68071;45.062;7.356;2023-07-22T11:42:12;94979.59;;;26.83;75.43
49999;BME280;68071;45.062;7.356;2023-07-22T11:45:16;94978.19;;;27.55;75.58
49999;BME280;68071;45.062;7.356;2023-07-22T11:48:20;94973.66;;;27.76;69.69
49999;BME280;68071;45.062;7.356;2023-07-22T11:51:24;94974.03;;;27.14;71.92
49999;BME280;68071;45.062;7.356;2023-07-22T11:54:30;94973.25;;;27.19;69.60
49999;BME280;68071;45.062;7.356;2023-07-22T11:57:35;94973.25;;;27.97;68.89
49999;BME280;68071;45.062;7.356;2023-07-22T12:00:42;94982.00;;;27.21;70.20
49999;BME280;68071;45.062;7.356;2023-07-22T12:03:47;94975.75;;;26.75;75.01
49999;BME280;68071;45.062;7.356;2023-07-22T12:06:51;94975.09;;;27.11;70.87
49999;BME280;68071;45.062;7.356;2023-07-22T12:09:58;94979.78;;;27.50;70.72
49999;BME280;68071;45.062;7.356;2023-07-22T12:13:02;94974.75;;;27.68;69.24
49999;BME280;68071;45.062;7.356;2023-07-22T12:16:06;94965.34;;;28.15;65.15
49999;BME280;68071;45.062;7.356;2023-07-22T12:19:11;94970.94;;;27.12;72.25
49999;BME280;68071;45.062;7.356;2023-07-22T12:22:15;94965.94;;;26.70;72.76
49999;BME280;68071;45.062;7.356;2023-07-22T12:25:19;94958.06;;;26.40;76.73
49999;BME280;68071;45.062;7.356;2023-07-22T12:28:23;94961.56;;;26.69;74.27
49999;BME280;68071;45.062;7.356;2023-07-22T12:31:27;94969.09;;;26.55;74.62
49999;BME280;68071;45.062;7.356;2023-07-22T12:34:31;94974.78;;;26.55;73.22
49999;BME280;68071;45.062;7.356;2023-07-22T12:37:36;94960.41;;;26.08;75.36
49999;BME280;68071;45.062;7.356;2023-07-22T12:40:40;94962.19;;;26.11;77.99
49999;BME280;68071;45.062;7.356;2023-07-22T12:43:44;94967.88;;;26.17;75.73
49999;BME280;68071;45.062;7.356;2023-07-22T12:46:48;94961.59;;;26.64;81.32
49999;BME280;68071;45.062;7.356;2023-07-22T12:49:52;94958.72;;;26.81;71.44
49999;BME280;68071;45.062;7.356;2023-07-22T12:52:56;94957.25;;;27.16;68.46
49999;BME280;68071;45.062;7.356;2023-07-22T12:56:00;94956.25;;;27.13;69.11
49999;BME280;68071;45.062;7.356;2023-07-22T12:59:06;94948.63;;;26.91;71.37
49999;BME280;68071;45.062;7.356;2023-07-22T13:02:10;94953.59;;;27.27;69.49
49999;BME280;68071;45.062;7.356;2023-07-22T13:05:15;94952.63;;;27.13;67.71
49999;BME280;68071;45.062;7.356;2023-07-22T13:08:19;94953.75;;;27.40;75.28
49999;BME280;68071;45.062;7.356;2023-07-22T13:11:22;94955.94;;;27.95;67.63
49999;BME280;68071;45.062;7.356;2023-07-22T13:14:26;94956.09;;;28.08;63.02
49999;BME280;68071;45.062;7.356;2023-07-22T13:17:31;94950.31;;;27.59;65.33
49999;BME280;68071;45.062;7.356;2023-07-22T13:20:36;94958.69;;;27.76;69.55
49999;BME280;68071;45.062;7.356;2023-07-22T13:23:40;94949.19;;;28.78;60.58
49999;BME280;68071;45.062;7.356;2023-07-22T13:26:44;94954.53;;;28.88;58.60
49999;BME280;68071;45.062;7.356;2023-07-22T13:29:48;94953.06;;;28.31;61.72
49999;BME280;68071;45.062;7.356;2023-07-22T13:32:52;94943.53;;;28.29;67.00
49999;BME280;68071;45.062;7.356;2023-07-22T13:35:56;94939.09;;;28.03;66.84
49999;BME280;68071;45.062;7.356;2023-07-22T13:39:00;94938.59;;;28.29;64.25
49999;BME280;68071;45.062;7.356;2023-07-22T13:42:05;94937.84;;;29.55;56.54
49999;BME280;68071;45.062;7.356;2023-07-22T13:45:09;94935.78;;;29.17;61.99
49999;BME280;68071;45.062;7.356;2023-07-22T13:48:13;94934.94;;;29.41;61.71
49999;BME280;68071;45.062;7.356;2023-07-22T13:51:17;94938.63;;;29.88;56.65
49999;BME280;68071;45.062;7.356;2023-07-22T13:54:21;94932.91;;;30.21;55.26
49999;BME280;68071;45.062;7.356;2023-07-22T13:57:25;94949.34;;;29.82;56.45
49999;BME280;68071;45.062;7.356;2023-07-22T14:00:29;94939.38;;;30.34;52.79
49999;BME280;68071;45.062;7.356;2023-07-22T14:03:33;94940.72;;;30.33;60.21
49999;BME280;68071;45.062;7.356;2023-07-22T14:06:37;94926.31;;;28.46;55.69
49999;BME280;68071;45.062;7.356;2023-07-22T14:09:41;94924.13;;;29.40;56.04
49999;BME280;68071;45.062;7.356;2023-07-22T14:12:45;94933.56;;;30.13;58.49
49999;BME280;68071;45.062;7.356;2023-07-22T14:15:50;94929.53;;;30.89;51.60
49999;BME280;68071;45.062;7.356;2023-07-22T14:18:54;94932.69;;;31.26;47.58
49999;BME280;68071;45.062;7.356;2023-07-22T14:21:58;94930.22;;;30.55;57.27
49999;BME280;68071;45.062;7.356;2023-07-22T14:25:03;94933.47;;;30.32;54.37
49999;BME280;68071;45.062;7.356;2023-07-22T14:28:07;94930.53;;;30.78;51.70
49999;BME280;68071;45.062;7.356;2023-07-22T14:31:12;94922.19;;;29.62;52.93
49999;BME280;68071;45.062;7.356;2023-07-22T14:34:17;94911.13;;;29.91;52.10
49999;BME280;68071;45.062;7.356;2023-07-22T14:37:22;94909.59;;;29.57;54.49
49999;BME280;68071;45.062;7.356;2023-07-22T14:40:28;94914.63;;;30.43;52.62
49999;BME280;68071;45.062;7.356;2023-07-22T14:43:33;94906.13;;;31.04;47.65
49999;BME280;68071;45.062;7.356;2023-07-22T14:46:37;94913.75;;;30.75;53.83
49999;BME280;68071;45.062;7.356;2023-07-22T14:49:41;94909.13;;;31.68;48.99
49999;BME280;68071;45.062;7.356;2023-07-22T14:52:45;94904.38;;;32.13;46.60
49999;BME280;68071;45.062;7.356;2023-07-22T14:55:49;94907.88;;;31.98;47.91
49999;BME280;68071;45.062;7.356;2023-07-22T14:58:52;94907.47;;;31.94;47.19
49999;BME280;68071;45.062;7.356;2023-07-22T15:01:57;94903.59;;;32.34;46.01
49999;BME280;68071;45.062;7.356;2023-07-22T15:05:02;94911.91;;;31.60;46.75
49999;BME280;68071;45.062;7.356;2023-07-22T15:08:06;94917.03;;;31.41;52.43
49999;BME280;68071;45.062;7.356;2023-07-22T15:11:10;94916.47;;;31.77;49.65
49999;BME280;68071;45.062;7.356;2023-07-22T15:14:14;94918.56;;;32.48;46.65
49999;BME280;68071;45.062;7.356;2023-07-22T15:17:18;94915.19;;;31.64;50.97
49999;BME280;68071;45.062;7.356;2023-07-22T15:20:22;94906.41;;;31.83;48.15
49999;BME280;68071;45.062;7.356;2023-07-22T15:23:27;94913.56;;;31.56;48.17
49999;BME280;68071;45.062;7.356;2023-07-22T15:26:31;94910.19;;;32.50;44.78
49999;BME280;68071;45.062;7.356;2023-07-22T15:29:35;94910.00;;;31.42;48.60
49999;BME280;68071;45.062;7.356;2023-07-22T15:32:39;94909.78;;;31.74;48.24
49999;BME280;68071;45.062;7.356;2023-07-22T15:35:43;94904.03;;;32.38;44.23
49999;BME280;68071;45.062;7.356;2023-07-22T15:38:47;94901.03;;;32.80;42.77
49999;BME280;68071;45.062;7.356;2023-07-22T15:41:51;94906.34;;;32.18;44.07
49999;BME280;68071;45.062;7.356;2023-07-22T15:44:55;94908.09;;;31.09;46.65
49999;BME280;68071;45.062;7.356;2023-07-22T15:47:59;94900.53;;;32.32;44.89
49999;BME280;68071;45.062;7.356;2023-07-22T15:51:03;94901.91;;;32.38;45.92
49999;BME280;68071;45.062;7.356;2023-07-22T15:54:07;94903.47;;;32.18;44.59
49999;BME280;68071;45.062;7.356;2023-07-22T15:57:11;94904.69;;;31.80;45.97
49999;BME280;68071;45.062;7.356;2023-07-22T16:00:15;94898.94;;;31.59;46.17
49999;BME280;68071;45.062;7.356;2023-07-22T16:03:19;94908.69;;;31.64;48.44
49999;BME280;68071;45.062;7.356;2023-07-22T16:06:23;94901.69;;;31.86;50.42
49999;BME280;68071;45.062;7.356;2023-07-22T16:09:27;94901.78;;;31.59;47.44
49999;BME280;68071;45.062;7.356;2023-07-22T16:12:32;94901.44;;;31.42;49.32
49999;BME280;68071;45.062;7.356;2023-07-22T16:15:36;94907.59;;;31.32;48.08
49999;BME280;68071;45.062;7.356;2023-07-22T16:18:40;94909.22;;;31.76;46.48
49999;BME280;68071;45.062;7.356;2023-07-22T16:21:44;94902.09;;;31.90;46.31